x

Buoy A01 - Mass. Bay/stellwagen (44029) Wave Buoy

6:04pm - Sun 26th Feb 2017 All times are EST. -5 hours from GMT.

  • Sig Wave height 3.3ft
  • Peak Period 4s
  • Wind
    25mph, 27mph gusts
  • Sea Temp 42°f
  • Air Temp 39°f
  • Sea Pressure 1014.6mb
  • Buoy A01 - Mass. Bay/stellwagen
  • Buoy A01 - Mass. Bay/stellwagen

More Historic Weather Station data

Upgrade to MSW Pro to gain access to the past 30 days of data for over 8000 Wavebouys and Weather Stations around the globe.

Join Pro

Comparision Forecast

View Surf forecast
   
Sun 02/26 6:04pm 3.5ft 4s 25 27 mph 1014.6mb 42f 39f
5:04pm  -   -   -  mph - 42f -
4:04pm 4ft 9s 25 29 mph 1011mb 42f 41f
3:04pm 4ft 4s 22 29 mph 1009.7mb 42f 41f
2:04pm 4.5ft 4s 22 29 mph 1008.9mb 42f 41f
1:04pm 4ft 4s 22 25 mph 1008.2mb 42f 40f
12:04pm 4.5ft 4s 22 27 mph 1007.6mb 42f 40f
11:04am 5ft 5s 25 31 mph 1007.4mb 42f 39f
10:04am 5ft 5s 25 29 mph 1006.7mb 42f 39f
9:04am 4.5ft 4s 18 25 mph 1006.3mb 42f 39f
8:04am 4.5ft 5s 25 29 mph 1005.2mb 42f 40f
7:04am 5ft 4s 22 27 mph 1003.6mb 41f 40f
6:04am 5ft 4s 25 29 mph 1002.4mb 41f 41f
5:04am 3ft 4s 22 29 mph 1001.5mb 41f 42f
4:04am 4ft 4s 18 25 mph 1000mb 42f 43f
3:04am 3.5ft 3s 20 27 mph 998.6mb 42f 43f
2:04am 3.5ft 3s 20 25 mph 997.4mb 42f 44f
1:04am 2.5ft 3s 18 22 mph 996.3mb 42f 46f
12:04am 3ft 3s 13 18 mph 996.1mb 42f 46f
Sat 02/25 11:04pm 3.5ft 4s 9 13 mph 995.7mb 42f 46f
10:04pm 3ft 4s 16 18 mph 996.1mb 42f 46f
9:04pm 2.5ft 10s 13 16 mph 996.3mb 42f 45f
8:04pm 2.5ft 4s 7
mph
998.1mb 42f 44f
7:04pm 2.5ft 3s 11 13 mph 998.8mb 42f 45f
6:04pm 2.5ft 3s 13
mph
999.2mb 42f 45f
5:04pm 2.5ft 4s 18 20 mph 1000.1mb 42f 47f
4:04pm 2.5ft 10s 16 18 mph 1002.2mb 42f 47f
3:04pm 2.5ft 10s 13 16 mph 1003.3mb 42f 47f
2:04pm 3ft 11s 13
mph
1004.3mb 42f 48f
1:04pm 2.5ft 11s 11 13 mph 1004.9mb 42f 47f
12:04pm  -   -  9 11 mph 1006.3mb 42f 46f
11:04am 2.5ft 9s 9
mph
1007.5mb 42f 44f
10:04am 2.5ft 12s 13 16 mph 1008.4mb 42f 44f
9:04am 2ft 12s 11 13 mph 1009.3mb 42f 43f
8:04am  -   -  11 13 mph 1010.2mb 42f 43f
7:04am  -   -  16 20 mph 1009.7mb 41f 43f
5:04am  -   -  11 13 mph 1010.2mb 41f 45f
4:04am  -   -  11
mph
1010.4mb 41f 46f
3:04am  -   -  9 16 mph 1010.4mb 41f 46f
2:04am  -   -  7 9 mph 1010.6mb 41f 45f
1:04am  -   -  4 7 mph 1010.7mb 41f 44f
Fri 02/24 11:04pm  -   -  11
mph
1010.3mb 41f 45f
10:04pm  -   -  11 13 mph 1010.4mb 41f 46f
9:04pm  -   -  11
mph
1010.7mb 42f 46f
8:04pm 2.5ft 10s 16 18 mph 1010.8mb 42f 46f
7:04pm 2.5ft 10s 13 16 mph 1011.1mb 42f 46f
6:04pm 3ft 9s 13
mph
1010.8mb 42f 49f
5:04pm  -   -  11 16 mph 1010.3mb 42f 49f
4:04pm 3.5ft 8s 16
mph
1009.7mb 42f 50f
3:04pm 3ft 10s 11 13 mph 1010mb 42f 49f
2:04pm 2.5ft 10s 11 13 mph 1010.2mb 42f 48f
1:04pm 2.5ft 10s 9 11 mph 1010.9mb 42f 46f
12:04pm 2.5ft 11s 9 11 mph 1011.9mb 42f 45f
11:04am 3ft 11s 13
mph
1012.6mb 42f 45f
10:04am 3ft 11s 9
mph
1012.9mb 42f 44f
9:04am 2.5ft 11s 4
mph
1013mb 41f 45f
8:04am  -   -  11
mph
1012.4mb 41f 45f
7:04am 2.5ft 11s 13
mph
1012.2mb 41f 45f
6:04am 3ft 10s 9
mph
1012.4mb 41f 44f
5:04am  -   -  7 9 mph 1012.1mb 41f 44f
4:04am 3ft 10s 13
mph
1011.5mb 41f 45f
3:04am 3ft 10s 11
mph
1011.2mb 41f 45f
2:04am 3.5ft 10s 7
mph
1011.3mb 41f 45f
1:04am 3.5ft 10s 9 11 mph 1010.8mb 41f 46f
12:04am 4.5ft 11s 9 11 mph 1010.3mb 41f 46f
Thu 02/23 11:04pm 4.5ft 11s 11 13 mph 1009.5mb 41f 46f
10:04pm 4ft 10s 16 18 mph 1009.4mb 41f 47f
9:04pm 4ft 11s 16 18 mph 1009.1mb 41f 47f
8:04pm 4ft 11s 13
mph
1008.3mb 41f 47f
7:04pm 4.5ft 10s 9
mph
1008.1mb 41f 46f
6:04pm 4ft 11s 16 18 mph 1007mb 41f 47f
5:04pm 5ft 10s 13 16 mph 1005.8mb 41f 46f
4:04pm 4ft 10s 18 20 mph 1005.2mb 42f 47f
3:04pm 4ft 9s 11 13 mph 1006mb 42f 48f
2:04pm 4ft 10s 13 16 mph 1006.6mb 42f 46f
1:04pm 4ft 10s 9 11 mph 1007.3mb 41f 45f
12:04pm 3.5ft 10s 11 13 mph 1008.3mb 41f 44f
11:04am 4ft 11s 11 13 mph 1009.2mb 41f 42f
10:04am 3.5ft 10s 11
mph
1010mb 41f 42f
9:04am 3.5ft 10s 11
mph
1010.4mb 41f 42f
8:04am 3.5ft 10s 11
mph
1010.3mb 41f 42f
7:04am 3.5ft 10s 9
mph
1010.1mb 41f 42f
6:04am  -   -  4 7 mph 1010.3mb 41f 42f
5:04am  -   -  9
mph
1010mb 41f 42f